Terminal Aerodrome Forecast
Issued by NWS Corpus Christi, TX

Home | Current Version | Previous Version | Text Only | Print | Product List | Glossary On
Versions: 1 2 3 4 5 6 7 8 9 10 11 12 13 14
000
FTUS44 KCRP 182320
TAFVCT
TAF
KVCT 182320Z 1900/1924 16012KT P6SM SKC
     FM190100 14007KT P6SM SKC
     FM190600 VRB03KT P6SM SCT020
      TEMPO 1911/1914 5SM BR BKN015
     FM191400 20006KT P6SM SCT025
     FM191800 17012KT P6SM FEW060=

USA.gov is the U.S. government's official web portal to all federal, state and local government web resources and services.